sensor_id;sensor_type;location;lat;lon;timestamp;P1;durP1;ratioP1;P2;durP2;ratioP2
59846;SDS011;45728;48.788;2.302;2023-04-06T00:01:40;11.43;;;8.38;;
59846;SDS011;45728;48.788;2.302;2023-04-06T00:04:06;11.07;;;8.57;;
59846;SDS011;45728;48.788;2.302;2023-04-06T00:06:32;12.27;;;9.10;;
59846;SDS011;45728;48.788;2.302;2023-04-06T00:08:59;12.98;;;8.73;;
59846;SDS011;45728;48.788;2.302;2023-04-06T00:11:26;12.85;;;8.75;;
59846;SDS011;45728;48.788;2.302;2023-04-06T00:13:52;13.85;;;9.25;;
59846;SDS011;45728;48.788;2.302;2023-04-06T00:16:19;11.80;;;8.98;;
59846;SDS011;45728;48.788;2.302;2023-04-06T00:18:45;12.40;;;8.60;;
59846;SDS011;45728;48.788;2.302;2023-04-06T00:21:12;12.70;;;8.60;;
59846;SDS011;45728;48.788;2.302;2023-04-06T00:23:39;15.70;;;9.63;;
59846;SDS011;45728;48.788;2.302;2023-04-06T00:26:06;14.23;;;9.93;;
59846;SDS011;45728;48.788;2.302;2023-04-06T00:28:32;13.52;;;9.57;;
59846;SDS011;45728;48.788;2.302;2023-04-06T00:30:58;15.85;;;10.43;;
59846;SDS011;45728;48.788;2.302;2023-04-06T00:33:24;13.80;;;10.38;;
59846;SDS011;45728;48.788;2.302;2023-04-06T00:35:50;13.77;;;10.18;;
59846;SDS011;45728;48.788;2.302;2023-04-06T00:38:17;16.27;;;11.35;;
59846;SDS011;45728;48.788;2.302;2023-04-06T00:40:43;14.55;;;11.02;;
59846;SDS011;45728;48.788;2.302;2023-04-06T00:43:10;14.57;;;10.27;;
59846;SDS011;45728;48.788;2.302;2023-04-06T00:45:37;15.25;;;10.60;;
59846;SDS011;45728;48.788;2.302;2023-04-06T00:48:05;15.50;;;10.85;;
59846;SDS011;45728;48.788;2.302;2023-04-06T00:50:31;15.38;;;10.95;;
59846;SDS011;45728;48.788;2.302;2023-04-06T00:52:58;15.25;;;10.57;;
59846;SDS011;45728;48.788;2.302;2023-04-06T00:55:26;13.90;;;10.15;;
59846;SDS011;45728;48.788;2.302;2023-04-06T00:57:52;15.95;;;10.95;;
59846;SDS011;45728;48.788;2.302;2023-04-06T01:00:18;13.98;;;10.43;;
59846;SDS011;45728;48.788;2.302;2023-04-06T01:02:45;16.73;;;11.32;;
59846;SDS011;45728;48.788;2.302;2023-04-06T01:05:11;16.85;;;10.48;;
59846;SDS011;45728;48.788;2.302;2023-04-06T01:07:38;14.43;;;10.88;;
59846;SDS011;45728;48.788;2.302;2023-04-06T01:10:04;14.88;;;10.40;;
59846;SDS011;45728;48.788;2.302;2023-04-06T01:12:30;15.75;;;10.65;;
59846;SDS011;45728;48.788;2.302;2023-04-06T01:14:56;14.38;;;10.27;;
59846;SDS011;45728;48.788;2.302;2023-04-06T01:17:22;15.80;;;10.30;;
59846;SDS011;45728;48.788;2.302;2023-04-06T01:19:49;14.00;;;10.40;;
59846;SDS011;45728;48.788;2.302;2023-04-06T01:22:16;15.70;;;10.65;;
59846;SDS011;45728;48.788;2.302;2023-04-06T01:24:43;14.73;;;10.48;;
59846;SDS011;45728;48.788;2.302;2023-04-06T01:27:09;14.95;;;11.05;;
59846;SDS011;45728;48.788;2.302;2023-04-06T01:29:35;12.85;;;10.07;;
59846;SDS011;45728;48.788;2.302;2023-04-06T01:32:02;14.75;;;10.80;;
59846;SDS011;45728;48.788;2.302;2023-04-06T01:34:28;14.93;;;11.30;;
59846;SDS011;45728;48.788;2.302;2023-04-06T01:36:54;15.00;;;11.10;;
59846;SDS011;45728;48.788;2.302;2023-04-06T01:39:20;14.52;;;10.82;;
59846;SDS011;45728;48.788;2.302;2023-04-06T01:41:46;18.30;;;11.10;;
59846;SDS011;45728;48.788;2.302;2023-04-06T01:44:16;16.05;;;10.88;;
59846;SDS011;45728;48.788;2.302;2023-04-06T01:46:44;16.23;;;11.07;;
59846;SDS011;45728;48.788;2.302;2023-04-06T01:49:11;14.55;;;11.32;;
59846;SDS011;45728;48.788;2.302;2023-04-06T01:51:38;15.63;;;10.68;;
59846;SDS011;45728;48.788;2.302;2023-04-06T01:54:04;16.50;;;11.40;;
59846;SDS011;45728;48.788;2.302;2023-04-06T01:56:30;17.48;;;10.57;;
59846;SDS011;45728;48.788;2.302;2023-04-06T01:58:57;14.15;;;10.68;;
59846;SDS011;45728;48.788;2.302;2023-04-06T02:01:23;14.90;;;10.80;;
59846;SDS011;45728;48.788;2.302;2023-04-06T02:03:49;13.43;;;10.02;;
59846;SDS011;45728;48.788;2.302;2023-04-06T02:06:15;15.35;;;10.38;;
59846;SDS011;45728;48.788;2.302;2023-04-06T02:08:41;14.52;;;10.40;;
59846;SDS011;45728;48.788;2.302;2023-04-06T02:11:07;15.00;;;10.05;;
59846;SDS011;45728;48.788;2.302;2023-04-06T02:13:33;16.27;;;11.43;;
59846;SDS011;45728;48.788;2.302;2023-04-06T02:15:59;14.80;;;10.73;;
59846;SDS011;45728;48.788;2.302;2023-04-06T02:18:28;14.20;;;10.43;;
59846;SDS011;45728;48.788;2.302;2023-04-06T02:20:57;15.90;;;10.55;;
59846;SDS011;45728;48.788;2.302;2023-04-06T02:23:23;14.38;;;10.27;;
59846;SDS011;45728;48.788;2.302;2023-04-06T02:25:49;15.75;;;11.10;;
59846;SDS011;45728;48.788;2.302;2023-04-06T02:28:16;15.52;;;10.77;;
59846;SDS011;45728;48.788;2.302;2023-04-06T02:30:42;17.98;;;10.18;;
59846;SDS011;45728;48.788;2.302;2023-04-06T02:33:08;14.05;;;10.70;;
59846;SDS011;45728;48.788;2.302;2023-04-06T02:35:34;14.40;;;10.88;;
59846;SDS011;45728;48.788;2.302;2023-04-06T02:38:00;13.55;;;10.60;;
59846;SDS011;45728;48.788;2.302;2023-04-06T02:40:26;14.73;;;10.77;;
59846;SDS011;45728;48.788;2.302;2023-04-06T02:42:52;13.57;;;10.15;;
59846;SDS011;45728;48.788;2.302;2023-04-06T02:45:18;14.65;;;10.75;;
59846;SDS011;45728;48.788;2.302;2023-04-06T02:47:44;13.25;;;9.70;;
59846;SDS011;45728;48.788;2.302;2023-04-06T02:50:10;13.43;;;10.20;;
59846;SDS011;45728;48.788;2.302;2023-04-06T02:52:36;14.60;;;10.68;;
59846;SDS011;45728;48.788;2.302;2023-04-06T02:55:02;13.88;;;10.23;;
59846;SDS011;45728;48.788;2.302;2023-04-06T02:57:29;12.98;;;10.00;;
59846;SDS011;45728;48.788;2.302;2023-04-06T02:59:55;13.27;;;10.25;;
59846;SDS011;45728;48.788;2.302;2023-04-06T03:02:21;14.68;;;10.82;;
59846;SDS011;45728;48.788;2.302;2023-04-06T03:04:47;14.00;;;10.48;;
59846;SDS011;45728;48.788;2.302;2023-04-06T03:07:14;15.52;;;10.48;;
59846;SDS011;45728;48.788;2.302;2023-04-06T03:09:40;15.98;;;10.52;;
59846;SDS011;45728;48.788;2.302;2023-04-06T03:12:06;14.55;;;11.00;;
59846;SDS011;45728;48.788;2.302;2023-04-06T03:14:32;12.30;;;10.30;;
59846;SDS011;45728;48.788;2.302;2023-04-06T03:16:58;15.35;;;10.73;;
59846;SDS011;45728;48.788;2.302;2023-04-06T03:19:24;14.50;;;10.93;;
59846;SDS011;45728;48.788;2.302;2023-04-06T03:21:50;13.88;;;10.93;;
59846;SDS011;45728;48.788;2.302;2023-04-06T03:24:17;15.30;;;9.88;;
59846;SDS011;45728;48.788;2.302;2023-04-06T03:26:43;15.38;;;10.02;;
59846;SDS011;45728;48.788;2.302;2023-04-06T03:29:09;14.63;;;10.40;;
59846;SDS011;45728;48.788;2.302;2023-04-06T03:31:35;15.30;;;10.25;;
59846;SDS011;45728;48.788;2.302;2023-04-06T03:34:01;15.25;;;10.88;;
59846;SDS011;45728;48.788;2.302;2023-04-06T03:36:27;15.55;;;10.80;;
59846;SDS011;45728;48.788;2.302;2023-04-06T03:38:53;14.15;;;10.93;;
59846;SDS011;45728;48.788;2.302;2023-04-06T03:41:19;13.55;;;9.68;;
59846;SDS011;45728;48.788;2.302;2023-04-06T03:43:46;13.65;;;10.80;;
59846;SDS011;45728;48.788;2.302;2023-04-06T03:46:12;14.52;;;10.75;;
59846;SDS011;45728;48.788;2.302;2023-04-06T03:48:38;15.80;;;11.73;;
59846;SDS011;45728;48.788;2.302;2023-04-06T03:51:04;15.80;;;11.50;;
59846;SDS011;45728;48.788;2.302;2023-04-06T03:53:30;16.35;;;11.18;;
59846;SDS011;45728;48.788;2.302;2023-04-06T03:55:56;15.77;;;10.50;;
59846;SDS011;45728;48.788;2.302;2023-04-06T03:58:22;14.68;;;10.05;;
59846;SDS011;45728;48.788;2.302;2023-04-06T04:00:49;14.38;;;10.55;;
59846;SDS011;45728;48.788;2.302;2023-04-06T04:03:15;13.45;;;10.68;;
59846;SDS011;45728;48.788;2.302;2023-04-06T04:05:41;15.02;;;10.48;;
59846;SDS011;45728;48.788;2.302;2023-04-06T04:08:08;16.20;;;10.88;;
59846;SDS011;45728;48.788;2.302;2023-04-06T04:10:34;13.77;;;10.60;;
59846;SDS011;45728;48.788;2.302;2023-04-06T04:13:01;13.75;;;10.88;;
59846;SDS011;45728;48.788;2.302;2023-04-06T04:15:27;14.68;;;10.98;;
59846;SDS011;45728;48.788;2.302;2023-04-06T04:17:53;15.23;;;11.55;;
59846;SDS011;45728;48.788;2.302;2023-04-06T04:20:19;15.50;;;10.77;;
59846;SDS011;45728;48.788;2.302;2023-04-06T04:22:45;14.00;;;10.90;;
59846;SDS011;45728;48.788;2.302;2023-04-06T04:25:11;14.32;;;10.95;;
59846;SDS011;45728;48.788;2.302;2023-04-06T04:27:37;13.48;;;10.48;;
59846;SDS011;45728;48.788;2.302;2023-04-06T04:30:03;15.30;;;10.70;;
59846;SDS011;45728;48.788;2.302;2023-04-06T04:32:30;17.10;;;11.05;;
59846;SDS011;45728;48.788;2.302;2023-04-06T04:34:56;16.25;;;10.57;;
59846;SDS011;45728;48.788;2.302;2023-04-06T04:37:22;14.30;;;10.40;;
59846;SDS011;45728;48.788;2.302;2023-04-06T04:39:48;14.43;;;10.55;;
59846;SDS011;45728;48.788;2.302;2023-04-06T04:42:14;14.38;;;10.35;;
59846;SDS011;45728;48.788;2.302;2023-04-06T04:44:41;15.73;;;10.80;;
59846;SDS011;45728;48.788;2.302;2023-04-06T04:47:07;13.57;;;10.35;;
59846;SDS011;45728;48.788;2.302;2023-04-06T04:49:33;13.82;;;10.13;;
59846;SDS011;45728;48.788;2.302;2023-04-06T04:51:59;12.48;;;9.45;;
59846;SDS011;45728;48.788;2.302;2023-04-06T04:54:25;13.95;;;9.60;;
59846;SDS011;45728;48.788;2.302;2023-04-06T04:56:51;14.13;;;9.48;;
59846;SDS011;45728;48.788;2.302;2023-04-06T04:59:17;12.38;;;9.35;;
59846;SDS011;45728;48.788;2.302;2023-04-06T05:01:43;13.80;;;10.02;;
59846;SDS011;45728;48.788;2.302;2023-04-06T05:04:09;13.20;;;8.48;;
59846;SDS011;45728;48.788;2.302;2023-04-06T05:06:35;13.70;;;9.55;;
59846;SDS011;45728;48.788;2.302;2023-04-06T05:09:02;13.73;;;9.07;;
59846;SDS011;45728;48.788;2.302;2023-04-06T05:11:28;12.15;;;8.90;;
59846;SDS011;45728;48.788;2.302;2023-04-06T05:13:55;11.32;;;8.95;;
59846;SDS011;45728;48.788;2.302;2023-04-06T05:16:21;14.20;;;9.27;;
59846;SDS011;45728;48.788;2.302;2023-04-06T05:18:48;17.60;;;9.57;;
59846;SDS011;45728;48.788;2.302;2023-04-06T05:21:14;11.63;;;9.20;;
59846;SDS011;45728;48.788;2.302;2023-04-06T05:23:40;12.52;;;8.57;;
59846;SDS011;45728;48.788;2.302;2023-04-06T05:26:06;12.45;;;9.13;;
59846;SDS011;45728;48.788;2.302;2023-04-06T05:28:32;14.00;;;9.15;;
59846;SDS011;45728;48.788;2.302;2023-04-06T05:30:58;14.45;;;9.02;;
59846;SDS011;45728;48.788;2.302;2023-04-06T05:33:25;12.32;;;8.68;;
59846;SDS011;45728;48.788;2.302;2023-04-06T05:35:51;12.27;;;8.95;;
59846;SDS011;45728;48.788;2.302;2023-04-06T05:38:17;15.05;;;9.35;;
59846;SDS011;45728;48.788;2.302;2023-04-06T05:40:43;14.98;;;9.10;;
59846;SDS011;45728;48.788;2.302;2023-04-06T05:43:09;13.40;;;9.55;;
59846;SDS011;45728;48.788;2.302;2023-04-06T05:45:36;13.65;;;9.57;;
59846;SDS011;45728;48.788;2.302;2023-04-06T05:48:02;14.13;;;9.23;;
59846;SDS011;45728;48.788;2.302;2023-04-06T05:50:28;14.50;;;9.10;;
59846;SDS011;45728;48.788;2.302;2023-04-06T05:52:54;12.95;;;8.98;;
59846;SDS011;45728;48.788;2.302;2023-04-06T05:55:20;11.30;;;9.07;;
59846;SDS011;45728;48.788;2.302;2023-04-06T05:57:47;13.20;;;9.63;;
59846;SDS011;45728;48.788;2.302;2023-04-06T06:00:13;16.30;;;9.98;;
59846;SDS011;45728;48.788;2.302;2023-04-06T06:02:39;14.48;;;8.93;;
59846;SDS011;45728;48.788;2.302;2023-04-06T06:05:08;11.90;;;8.82;;
59846;SDS011;45728;48.788;2.302;2023-04-06T06:07:35;12.35;;;9.45;;
59846;SDS011;45728;48.788;2.302;2023-04-06T06:10:01;15.02;;;9.25;;
59846;SDS011;45728;48.788;2.302;2023-04-06T06:12:28;13.75;;;9.20;;
59846;SDS011;45728;48.788;2.302;2023-04-06T06:14:54;11.85;;;9.02;;
59846;SDS011;45728;48.788;2.302;2023-04-06T06:17:20;11.07;;;8.73;;
59846;SDS011;45728;48.788;2.302;2023-04-06T06:19:47;12.95;;;8.55;;
59846;SDS011;45728;48.788;2.302;2023-04-06T06:22:13;13.48;;;8.50;;
59846;SDS011;45728;48.788;2.302;2023-04-06T06:24:39;11.20;;;8.70;;
59846;SDS011;45728;48.788;2.302;2023-04-06T06:27:05;16.85;;;9.75;;
59846;SDS011;45728;48.788;2.302;2023-04-06T06:29:33;12.95;;;9.38;;
59846;SDS011;45728;48.788;2.302;2023-04-06T06:31:59;13.88;;;8.82;;
59846;SDS011;45728;48.788;2.302;2023-04-06T06:34:25;13.95;;;9.45;;
59846;SDS011;45728;48.788;2.302;2023-04-06T06:36:51;14.43;;;9.80;;
59846;SDS011;45728;48.788;2.302;2023-04-06T06:39:20;12.02;;;9.73;;
59846;SDS011;45728;48.788;2.302;2023-04-06T06:41:46;18.13;;;9.93;;
59846;SDS011;45728;48.788;2.302;2023-04-06T06:44:12;11.88;;;9.63;;
59846;SDS011;45728;48.788;2.302;2023-04-06T06:46:38;16.98;;;11.48;;
59846;SDS011;45728;48.788;2.302;2023-04-06T06:49:04;16.77;;;11.50;;
59846;SDS011;45728;48.788;2.302;2023-04-06T06:51:31;16.38;;;11.15;;
59846;SDS011;45728;48.788;2.302;2023-04-06T06:53:57;14.68;;;10.77;;
59846;SDS011;45728;48.788;2.302;2023-04-06T06:56:23;14.40;;;10.38;;
59846;SDS011;45728;48.788;2.302;2023-04-06T06:58:49;18.67;;;10.82;;
59846;SDS011;45728;48.788;2.302;2023-04-06T07:01:15;16.27;;;11.05;;
59846;SDS011;45728;48.788;2.302;2023-04-06T07:03:41;15.45;;;11.20;;
59846;SDS011;45728;48.788;2.302;2023-04-06T07:06:07;14.82;;;10.98;;
59846;SDS011;45728;48.788;2.302;2023-04-06T07:08:33;15.18;;;10.23;;
59846;SDS011;45728;48.788;2.302;2023-04-06T07:10:59;14.02;;;10.13;;
59846;SDS011;45728;48.788;2.302;2023-04-06T07:13:25;14.02;;;10.82;;
59846;SDS011;45728;48.788;2.302;2023-04-06T07:15:53;17.00;;;11.40;;
59846;SDS011;45728;48.788;2.302;2023-04-06T07:18:19;18.70;;;11.20;;
59846;SDS011;45728;48.788;2.302;2023-04-06T07:20:46;16.45;;;11.00;;
59846;SDS011;45728;48.788;2.302;2023-04-06T07:25:57;15.80;;;11.48;;
59846;SDS011;45728;48.788;2.302;2023-04-06T07:28:23;17.13;;;12.13;;
59846;SDS011;45728;48.788;2.302;2023-04-06T07:30:49;16.27;;;11.50;;
59846;SDS011;45728;48.788;2.302;2023-04-06T07:33:15;18.92;;;11.75;;
59846;SDS011;45728;48.788;2.302;2023-04-06T07:35:41;15.02;;;11.63;;
59846;SDS011;45728;48.788;2.302;2023-04-06T07:38:08;15.23;;;12.05;;
59846;SDS011;45728;48.788;2.302;2023-04-06T07:40:34;15.52;;;12.25;;
59846;SDS011;45728;48.788;2.302;2023-04-06T07:43:01;18.70;;;12.68;;
59846;SDS011;45728;48.788;2.302;2023-04-06T07:45:27;23.23;;;12.63;;
59846;SDS011;45728;48.788;2.302;2023-04-06T07:47:53;17.23;;;12.50;;
59846;SDS011;45728;48.788;2.302;2023-04-06T07:50:19;19.90;;;14.57;;
59846;SDS011;45728;48.788;2.302;2023-04-06T07:52:45;17.60;;;14.57;;
59846;SDS011;45728;48.788;2.302;2023-04-06T07:55:12;18.98;;;14.60;;
59846;SDS011;45728;48.788;2.302;2023-04-06T07:57:38;19.95;;;13.73;;
59846;SDS011;45728;48.788;2.302;2023-04-06T08:00:04;18.70;;;13.43;;
59846;SDS011;45728;48.788;2.302;2023-04-06T08:02:31;16.60;;;13.45;;
59846;SDS011;45728;48.788;2.302;2023-04-06T08:04:57;17.20;;;13.40;;
59846;SDS011;45728;48.788;2.302;2023-04-06T08:07:23;20.05;;;14.07;;
59846;SDS011;45728;48.788;2.302;2023-04-06T08:09:50;15.77;;;13.32;;
59846;SDS011;45728;48.788;2.302;2023-04-06T08:12:17;18.45;;;15.20;;
59846;SDS011;45728;48.788;2.302;2023-04-06T08:14:43;17.35;;;14.65;;
59846;SDS011;45728;48.788;2.302;2023-04-06T08:17:09;18.45;;;14.23;;
59846;SDS011;45728;48.788;2.302;2023-04-06T08:19:35;18.92;;;13.93;;
59846;SDS011;45728;48.788;2.302;2023-04-06T08:22:02;19.65;;;14.25;;
59846;SDS011;45728;48.788;2.302;2023-04-06T08:24:29;19.08;;;15.18;;
59846;SDS011;45728;48.788;2.302;2023-04-06T08:26:56;18.80;;;15.68;;
59846;SDS011;45728;48.788;2.302;2023-04-06T08:29:22;17.67;;;14.45;;
59846;SDS011;45728;48.788;2.302;2023-04-06T08:31:48;19.48;;;15.82;;
59846;SDS011;45728;48.788;2.302;2023-04-06T08:34:14;21.75;;;16.13;;
59846;SDS011;45728;48.788;2.302;2023-04-06T08:36:41;22.15;;;18.52;;
59846;SDS011;45728;48.788;2.302;2023-04-06T08:39:07;19.77;;;15.93;;
59846;SDS011;45728;48.788;2.302;2023-04-06T08:44:18;22.30;;;16.75;;
59846;SDS011;45728;48.788;2.302;2023-04-06T08:46:44;20.42;;;16.88;;
59846;SDS011;45728;48.788;2.302;2023-04-06T08:49:11;20.95;;;16.92;;
59846;SDS011;45728;48.788;2.302;2023-04-06T08:51:39;21.50;;;16.63;;
59846;SDS011;45728;48.788;2.302;2023-04-06T08:54:09;21.80;;;16.85;;
59846;SDS011;45728;48.788;2.302;2023-04-06T08:56:38;21.85;;;18.05;;
59846;SDS011;45728;48.788;2.302;2023-04-06T08:59:05;22.73;;;17.42;;
59846;SDS011;45728;48.788;2.302;2023-04-06T09:01:33;19.67;;;16.63;;
59846;SDS011;45728;48.788;2.302;2023-04-06T09:04:03;21.30;;;15.63;;
59846;SDS011;45728;48.788;2.302;2023-04-06T09:06:34;21.40;;;15.70;;
59846;SDS011;45728;48.788;2.302;2023-04-06T09:09:02;23.15;;;16.75;;
59846;SDS011;45728;48.788;2.302;2023-04-06T09:11:28;20.77;;;15.32;;
59846;SDS011;45728;48.788;2.302;2023-04-06T09:14:06;18.55;;;16.15;;
59846;SDS011;45728;48.788;2.302;2023-04-06T09:16:38;18.52;;;15.88;;
59846;SDS011;45728;48.788;2.302;2023-04-06T09:19:06;17.23;;;14.88;;
59846;SDS011;45728;48.788;2.302;2023-04-06T09:21:32;16.58;;;14.25;;
59846;SDS011;45728;48.788;2.302;2023-04-06T09:23:59;20.10;;;16.02;;
59846;SDS011;45728;48.788;2.302;2023-04-06T09:26:26;18.65;;;14.88;;
59846;SDS011;45728;48.788;2.302;2023-04-06T09:28:53;19.80;;;15.27;;
59846;SDS011;45728;48.788;2.302;2023-04-06T09:31:24;16.10;;;14.43;;
59846;SDS011;45728;48.788;2.302;2023-04-06T09:33:52;17.55;;;15.18;;
59846;SDS011;45728;48.788;2.302;2023-04-06T09:36:19;16.55;;;14.15;;
59846;SDS011;45728;48.788;2.302;2023-04-06T09:38:55;17.17;;;13.93;;
59846;SDS011;45728;48.788;2.302;2023-04-06T09:41:25;15.05;;;12.85;;
59846;SDS011;45728;48.788;2.302;2023-04-06T09:44:01;19.65;;;13.68;;
59846;SDS011;45728;48.788;2.302;2023-04-06T09:46:31;19.27;;;13.82;;
59846;SDS011;45728;48.788;2.302;2023-04-06T09:49:00;16.02;;;13.23;;
59846;SDS011;45728;48.788;2.302;2023-04-06T09:51:28;14.80;;;12.75;;
59846;SDS011;45728;48.788;2.302;2023-04-06T09:54:02;15.45;;;13.43;;
59846;SDS011;45728;48.788;2.302;2023-04-06T09:56:31;14.05;;;11.32;;
59846;SDS011;45728;48.788;2.302;2023-04-06T09:59:05;12.85;;;10.85;;
59846;SDS011;45728;48.788;2.302;2023-04-06T10:01:37;13.93;;;10.55;;
59846;SDS011;45728;48.788;2.302;2023-04-06T10:06:43;13.30;;;10.17;;
59846;SDS011;45728;48.788;2.302;2023-04-06T10:09:13;9.95;;;8.93;;
59846;SDS011;45728;48.788;2.302;2023-04-06T10:11:40;12.82;;;10.57;;
59846;SDS011;45728;48.788;2.302;2023-04-06T10:14:07;14.25;;;11.00;;
59846;SDS011;45728;48.788;2.302;2023-04-06T10:16:33;10.55;;;9.07;;
59846;SDS011;45728;48.788;2.302;2023-04-06T10:19:02;12.63;;;10.23;;
59846;SDS011;45728;48.788;2.302;2023-04-06T10:21:35;10.23;;;9.15;;
59846;SDS011;45728;48.788;2.302;2023-04-06T10:24:06;11.65;;;9.13;;
59846;SDS011;45728;48.788;2.302;2023-04-06T10:26:37;10.57;;;9.25;;
59846;SDS011;45728;48.788;2.302;2023-04-06T10:29:04;9.95;;;8.57;;
59846;SDS011;45728;48.788;2.302;2023-04-06T10:31:30;12.85;;;9.15;;
59846;SDS011;45728;48.788;2.302;2023-04-06T10:33:57;11.07;;;9.05;;
59846;SDS011;45728;48.788;2.302;2023-04-06T10:36:26;9.93;;;8.45;;
59846;SDS011;45728;48.788;2.302;2023-04-06T10:39:03;9.25;;;8.25;;
59846;SDS011;45728;48.788;2.302;2023-04-06T10:42:05;9.73;;;8.27;;
59846;SDS011;45728;48.788;2.302;2023-04-06T10:44:31;10.23;;;8.52;;
59846;SDS011;45728;48.788;2.302;2023-04-06T10:47:15;9.27;;;7.80;;
59846;SDS011;45728;48.788;2.302;2023-04-06T10:49:43;9.95;;;8.60;;
59846;SDS011;45728;48.788;2.302;2023-04-06T10:52:09;9.90;;;7.93;;
59846;SDS011;45728;48.788;2.302;2023-04-06T10:54:39;9.05;;;7.72;;
59846;SDS011;45728;48.788;2.302;2023-04-06T10:57:10;9.93;;;7.80;;
59846;SDS011;45728;48.788;2.302;2023-04-06T10:59:41;8.05;;;6.63;;
59846;SDS011;45728;48.788;2.302;2023-04-06T11:02:08;8.15;;;6.32;;
59846;SDS011;45728;48.788;2.302;2023-04-06T11:04:53;7.60;;;6.75;;
59846;SDS011;45728;48.788;2.302;2023-04-06T11:07:26;9.93;;;6.97;;
59846;SDS011;45728;48.788;2.302;2023-04-06T11:09:55;8.05;;;6.88;;
59846;SDS011;45728;48.788;2.302;2023-04-06T11:12:30;7.45;;;6.18;;
59846;SDS011;45728;48.788;2.302;2023-04-06T11:14:57;6.78;;;5.93;;
59846;SDS011;45728;48.788;2.302;2023-04-06T11:17:31;8.27;;;5.93;;
59846;SDS011;45728;48.788;2.302;2023-04-06T11:20:01;9.30;;;6.70;;
59846;SDS011;45728;48.788;2.302;2023-04-06T11:22:29;7.55;;;6.60;;
59846;SDS011;45728;48.788;2.302;2023-04-06T11:25:05;7.15;;;6.03;;
59846;SDS011;45728;48.788;2.302;2023-04-06T11:27:35;7.40;;;5.85;;
59846;SDS011;45728;48.788;2.302;2023-04-06T11:30:02;6.95;;;5.55;;
59846;SDS011;45728;48.788;2.302;2023-04-06T11:32:29;6.35;;;5.53;;
59846;SDS011;45728;48.788;2.302;2023-04-06T11:35:04;6.82;;;5.30;;
59846;SDS011;45728;48.788;2.302;2023-04-06T11:37:30;6.05;;;4.97;;
59846;SDS011;45728;48.788;2.302;2023-04-06T11:39:58;6.40;;;4.28;;
59846;SDS011;45728;48.788;2.302;2023-04-06T11:42:25;7.93;;;5.40;;
59846;SDS011;45728;48.788;2.302;2023-04-06T11:44:55;6.25;;;4.78;;
59846;SDS011;45728;48.788;2.302;2023-04-06T11:47:35;6.43;;;4.25;;
59846;SDS011;45728;48.788;2.302;2023-04-06T11:50:06;7.70;;;5.13;;
59846;SDS011;45728;48.788;2.302;2023-04-06T11:52:38;5.93;;;4.43;;
59846;SDS011;45728;48.788;2.302;2023-04-06T11:55:12;7.75;;;4.75;;
59846;SDS011;45728;48.788;2.302;2023-04-06T11:57:43;7.70;;;3.65;;
59846;SDS011;45728;48.788;2.302;2023-04-06T12:00:10;4.82;;;3.47;;
59846;SDS011;45728;48.788;2.302;2023-04-06T12:02:38;5.28;;;3.42;;
59846;SDS011;45728;48.788;2.302;2023-04-06T12:05:04;5.53;;;3.00;;
59846;SDS011;45728;48.788;2.302;2023-04-06T12:07:32;8.77;;;3.22;;
59846;SDS011;45728;48.788;2.302;2023-04-06T12:09:59;4.63;;;3.35;;
59846;SDS011;45728;48.788;2.302;2023-04-06T12:12:26;5.85;;;3.03;;
59846;SDS011;45728;48.788;2.302;2023-04-06T12:14:52;5.03;;;3.17;;
59846;SDS011;45728;48.788;2.302;2023-04-06T12:17:19;6.53;;;3.10;;
59846;SDS011;45728;48.788;2.302;2023-04-06T12:19:45;5.20;;;2.78;;
59846;SDS011;45728;48.788;2.302;2023-04-06T12:22:12;6.47;;;3.00;;
59846;SDS011;45728;48.788;2.302;2023-04-06T12:24:38;4.28;;;2.83;;
59846;SDS011;45728;48.788;2.302;2023-04-06T12:27:04;5.63;;;3.10;;
59846;SDS011;45728;48.788;2.302;2023-04-06T12:29:30;5.60;;;2.97;;
59846;SDS011;45728;48.788;2.302;2023-04-06T12:31:56;8.77;;;2.78;;
59846;SDS011;45728;48.788;2.302;2023-04-06T12:34:22;5.18;;;2.85;;
59846;SDS011;45728;48.788;2.302;2023-04-06T12:36:48;7.45;;;3.00;;
59846;SDS011;45728;48.788;2.302;2023-04-06T12:39:15;4.78;;;2.30;;
59846;SDS011;45728;48.788;2.302;2023-04-06T12:41:42;5.43;;;2.85;;
59846;SDS011;45728;48.788;2.302;2023-04-06T12:44:08;3.72;;;1.95;;
59846;SDS011;45728;48.788;2.302;2023-04-06T12:46:34;5.45;;;2.70;;
59846;SDS011;45728;48.788;2.302;2023-04-06T12:49:00;5.25;;;2.35;;
59846;SDS011;45728;48.788;2.302;2023-04-06T12:51:29;6.30;;;2.45;;
59846;SDS011;45728;48.788;2.302;2023-04-06T12:53:56;6.03;;;3.08;;
59846;SDS011;45728;48.788;2.302;2023-04-06T12:56:22;4.40;;;2.00;;
59846;SDS011;45728;48.788;2.302;2023-04-06T12:58:50;3.35;;;2.10;;
59846;SDS011;45728;48.788;2.302;2023-04-06T13:01:17;5.07;;;1.98;;
59846;SDS011;45728;48.788;2.302;2023-04-06T13:03:44;4.88;;;2.47;;
59846;SDS011;45728;48.788;2.302;2023-04-06T13:06:10;5.57;;;2.38;;
59846;SDS011;45728;48.788;2.302;2023-04-06T13:08:37;6.90;;;2.22;;
59846;SDS011;45728;48.788;2.302;2023-04-06T13:11:04;4.47;;;2.30;;
59846;SDS011;45728;48.788;2.302;2023-04-06T13:13:33;4.93;;;2.20;;
59846;SDS011;45728;48.788;2.302;2023-04-06T13:16:01;5.45;;;2.08;;
59846;SDS011;45728;48.788;2.302;2023-04-06T13:18:32;5.03;;;2.20;;
59846;SDS011;45728;48.788;2.302;2023-04-06T13:21:00;7.00;;;2.00;;
59846;SDS011;45728;48.788;2.302;2023-04-06T13:23:26;5.57;;;2.10;;
59846;SDS011;45728;48.788;2.302;2023-04-06T13:26:02;5.00;;;2.10;;
59846;SDS011;45728;48.788;2.302;2023-04-06T13:28:30;3.92;;;1.80;;
59846;SDS011;45728;48.788;2.302;2023-04-06T13:30:57;5.60;;;2.40;;
59846;SDS011;45728;48.788;2.302;2023-04-06T13:33:25;6.20;;;2.40;;
59846;SDS011;45728;48.788;2.302;2023-04-06T13:35:51;5.20;;;2.35;;
59846;SDS011;45728;48.788;2.302;2023-04-06T13:38:17;5.82;;;2.53;;
59846;SDS011;45728;48.788;2.302;2023-04-06T13:40:43;5.68;;;2.20;;
59846;SDS011;45728;48.788;2.302;2023-04-06T13:43:10;4.53;;;2.35;;
59846;SDS011;45728;48.788;2.302;2023-04-06T13:45:36;4.80;;;1.90;;
59846;SDS011;45728;48.788;2.302;2023-04-06T13:48:03;7.40;;;2.65;;
59846;SDS011;45728;48.788;2.302;2023-04-06T13:50:30;4.22;;;1.92;;
59846;SDS011;45728;48.788;2.302;2023-04-06T13:52:56;4.78;;;1.83;;
59846;SDS011;45728;48.788;2.302;2023-04-06T13:55:22;5.35;;;1.83;;
59846;SDS011;45728;48.788;2.302;2023-04-06T13:57:51;4.45;;;2.03;;
59846;SDS011;45728;48.788;2.302;2023-04-06T14:00:17;3.35;;;1.50;;
59846;SDS011;45728;48.788;2.302;2023-04-06T14:02:44;5.25;;;1.92;;
59846;SDS011;45728;48.788;2.302;2023-04-06T14:05:10;6.30;;;1.73;;
59846;SDS011;45728;48.788;2.302;2023-04-06T14:07:37;6.30;;;2.40;;
59846;SDS011;45728;48.788;2.302;2023-04-06T14:10:03;7.40;;;1.70;;
59846;SDS011;45728;48.788;2.302;2023-04-06T14:12:29;4.95;;;1.73;;
59846;SDS011;45728;48.788;2.302;2023-04-06T14:14:57;3.33;;;1.60;;
59846;SDS011;45728;48.788;2.302;2023-04-06T14:17:23;5.93;;;1.67;;
59846;SDS011;45728;48.788;2.302;2023-04-06T14:19:49;5.55;;;1.70;;
59846;SDS011;45728;48.788;2.302;2023-04-06T14:22:16;3.30;;;1.45;;
59846;SDS011;45728;48.788;2.302;2023-04-06T14:24:43;4.95;;;1.67;;
59846;SDS011;45728;48.788;2.302;2023-04-06T14:27:09;3.75;;;1.50;;
59846;SDS011;45728;48.788;2.302;2023-04-06T14:29:35;7.65;;;1.65;;
59846;SDS011;45728;48.788;2.302;2023-04-06T14:32:01;3.80;;;1.70;;
59846;SDS011;45728;48.788;2.302;2023-04-06T14:34:27;5.10;;;1.27;;
59846;SDS011;45728;48.788;2.302;2023-04-06T14:36:54;5.03;;;1.50;;
59846;SDS011;45728;48.788;2.302;2023-04-06T14:39:20;4.93;;;1.65;;